Řízení letového provozu České republiky
Letiste: LKMT Aktualizace: 19.09.2018 19:01:06  UTC
 METAR LKMT 19.09. 19:00 ...
METAR LKMT 191900Z 21005KT CAVOK 18/11 Q1021 NOSIG RMK REG QNH 1018 =
 TAF LKMT 19.09. 17:00 ...
TAF LKMT 191700Z 1918/2100 20003KT CAVOK      BECMG 2007/2009 23008KT      BECMG 2018/2020 VRB02KT=